createdAt,value
2023-04-25T00:00:24.906Z,10.23
2023-04-25T00:02:58.373Z,9.13
2023-04-25T00:05:31.837Z,10.82
2023-04-25T00:08:06.353Z,9.73
2023-04-25T00:10:39.953Z,10.13
2023-04-25T00:13:12.914Z,10.93
2023-04-25T00:15:47.748Z,12.35
2023-04-25T00:18:21.294Z,10.08
2023-04-25T00:20:54.398Z,8.65
2023-04-25T00:23:27.511Z,10.32
2023-04-25T00:26:00.657Z,10.85
2023-04-25T00:28:33.700Z,30.05
2023-04-25T00:31:07.128Z,10.25
2023-04-25T00:33:40.220Z,9.83
2023-04-25T00:36:13.243Z,8.45
2023-04-25T00:38:48.056Z,10.25
2023-04-25T00:41:21.314Z,12.68
2023-04-25T00:43:54.727Z,10.95
2023-04-25T00:46:27.854Z,9.23
2023-04-25T00:49:01.455Z,9.53
2023-04-25T00:51:36.127Z,11.70
2023-04-25T00:54:09.353Z,13.62
2023-04-25T00:56:42.879Z,9.63
2023-04-25T00:59:17.365Z,11.95
2023-04-25T01:01:50.741Z,10.23
2023-04-25T01:04:23.805Z,12.93
2023-04-25T01:06:58.972Z,12.70
2023-04-25T01:09:33.612Z,14.73
2023-04-25T01:12:07.630Z,13.22
2023-04-25T01:14:41.129Z,13.28
2023-04-25T01:19:48.870Z,21.62
2023-04-25T01:22:23.457Z,15.25
2023-04-25T01:24:58.493Z,14.35
2023-04-25T01:27:31.910Z,18.90
2023-04-25T01:30:06.066Z,12.37
2023-04-25T01:32:42.664Z,14.65
2023-04-25T01:35:16.286Z,13.70
2023-04-25T01:37:50.529Z,12.88
2023-04-25T01:40:24.882Z,14.18
2023-04-25T01:42:58.502Z,12.75
2023-04-25T01:45:31.594Z,10.38
2023-04-25T01:48:04.989Z,10.63
2023-04-25T01:50:39.911Z,11.33
2023-04-25T01:53:13.482Z,11.05
2023-04-25T01:58:22.679Z,10.03
2023-04-25T02:01:00.629Z,13.53
2023-04-25T02:03:36.696Z,13.62
2023-04-25T02:06:12.449Z,10.98
2023-04-25T02:08:47.231Z,9.65
2023-04-25T02:11:20.342Z,12.60
2023-04-25T02:14:01.151Z,11.68
2023-04-25T02:16:41.926Z,14.05
2023-04-25T02:19:15.096Z,12.17
2023-04-25T02:21:49.671Z,16.00
2023-04-25T02:24:22.725Z,15.50
2023-04-25T02:26:57.119Z,15.60
2023-04-25T02:32:01.856Z,23.92
2023-04-25T02:34:34.963Z,21.37
2023-04-25T02:37:07.913Z,23.85
2023-04-25T02:39:40.974Z,17.15
2023-04-25T02:42:13.995Z,19.35
2023-04-25T02:44:47.325Z,21.20
2023-04-25T02:47:20.369Z,21.80
2023-04-25T02:49:57.101Z,23.05
2023-04-25T02:52:30.090Z,25.45
2023-04-25T02:55:09.054Z,23.55
2023-04-25T02:57:42.295Z,27.85
2023-04-25T03:00:17.672Z,26.00
2023-04-25T03:02:51.034Z,23.52
2023-04-25T03:05:24.151Z,27.93
2023-04-25T03:07:57.546Z,24.65
2023-04-25T03:10:31.018Z,22.93
2023-04-25T03:13:05.785Z,26.90
2023-04-25T03:15:40.920Z,23.42
2023-04-25T03:18:13.761Z,24.40
2023-04-25T03:20:47.928Z,27.73
2023-04-25T03:25:53.131Z,28.98
2023-04-25T03:28:26.661Z,24.70
2023-04-25T03:31:00.567Z,27.85
2023-04-25T03:33:33.558Z,24.55
2023-04-25T03:36:07.970Z,27.17
2023-04-25T03:41:13.933Z,26.68
2023-04-25T03:44:00.621Z,25.65
2023-04-25T03:46:34.304Z,28.87
2023-04-25T03:49:07.945Z,25.70
2023-04-25T03:51:57.760Z,26.62
2023-04-25T03:54:31.043Z,29.42
2023-04-25T03:57:06.022Z,25.25
2023-04-25T03:59:41.001Z,26.90
2023-04-25T04:02:16.030Z,30.43
2023-04-25T04:04:49.543Z,26.27
2023-04-25T04:07:22.698Z,24.37
2023-04-25T04:09:57.441Z,27.93
2023-04-25T04:12:32.065Z,29.35
2023-04-25T04:15:09.939Z,36.58
2023-04-25T04:17:43.234Z,37.38
2023-04-25T04:20:16.642Z,39.37
2023-04-25T04:22:50.411Z,42.43
2023-04-25T04:25:25.852Z,45.80
2023-04-25T04:28:15.565Z,55.15
2023-04-25T04:30:52.006Z,55.45
2023-04-25T04:33:26.577Z,55.73
2023-04-25T04:36:04.996Z,54.35
2023-04-25T04:38:40.126Z,59.73
2023-04-25T04:41:14.434Z,61.25
2023-04-25T04:43:51.145Z,66.82
2023-04-25T04:46:29.926Z,65.47
2023-04-25T04:49:19.901Z,68.70
2023-04-25T04:51:57.369Z,58.23
2023-04-25T04:54:37.962Z,63.48
2023-04-25T04:57:21.505Z,64.00
2023-04-25T05:00:02.959Z,75.85
2023-04-25T05:02:40.215Z,72.47
2023-04-25T05:05:21.259Z,85.67
2023-04-25T05:07:56.076Z,77.12
2023-04-25T05:10:30.836Z,81.02
2023-04-25T05:13:20.452Z,77.70
2023-04-25T05:16:07.791Z,88.12
2023-04-25T05:18:43.844Z,84.90
2023-04-25T05:21:36.590Z,73.78
2023-04-25T05:24:17.279Z,79.32
2023-04-25T05:27:08.621Z,67.87
2023-04-25T05:29:58.224Z,71.30
2023-04-25T05:32:36.970Z,66.75
2023-04-25T05:37:45.335Z,62.80
2023-04-25T05:40:19.995Z,66.07
2023-04-25T05:42:54.665Z,59.95
2023-04-25T05:45:29.457Z,58.28
2023-04-25T05:48:16.344Z,67.58
2023-04-25T05:50:52.730Z,62.45
2023-04-25T05:53:27.313Z,53.65
2023-04-25T05:56:02.065Z,59.25
2023-04-25T05:58:35.901Z,52.20
2023-04-25T06:01:10.275Z,51.28
2023-04-25T06:06:17.468Z,51.75
2023-04-25T06:08:50.761Z,53.78
2023-04-25T06:11:23.899Z,53.30
2023-04-25T06:13:59.130Z,52.13
2023-04-25T06:16:32.229Z,52.23
2023-04-25T06:19:05.817Z,53.10
2023-04-25T06:21:40.916Z,50.48
2023-04-25T06:24:14.622Z,53.63
2023-04-25T06:26:48.916Z,48.73
2023-04-25T06:29:22.419Z,55.85
2023-04-25T06:31:55.380Z,55.52
2023-04-25T06:34:29.206Z,51.40
2023-04-25T06:37:02.514Z,68.53
2023-04-25T06:39:36.696Z,50.70
2023-04-25T06:42:11.311Z,37.65
2023-04-25T06:44:48.782Z,36.68
2023-04-25T06:47:23.552Z,34.08
2023-04-25T06:49:56.865Z,34.53
2023-04-25T06:52:31.258Z,43.65
2023-04-25T06:57:38.591Z,39.90
2023-04-25T07:00:14.693Z,39.27
2023-04-25T07:02:48.260Z,37.33
2023-04-25T07:05:21.738Z,33.50
2023-04-25T07:07:54.945Z,32.58
2023-04-25T07:10:28.046Z,28.30
2023-04-25T07:13:01.979Z,34.30
2023-04-25T07:15:36.152Z,28.45
2023-04-25T07:18:09.299Z,24.25
2023-04-25T07:20:42.684Z,18.20
2023-04-25T07:23:15.829Z,22.33
2023-04-25T07:25:49.119Z,22.48
2023-04-25T07:28:23.893Z,23.77
2023-04-25T07:30:57.243Z,17.02
2023-04-25T07:33:31.374Z,18.55
2023-04-25T07:36:04.377Z,19.40
2023-04-25T07:38:37.884Z,17.62
2023-04-25T07:43:44.061Z,18.27
2023-04-25T07:46:17.711Z,15.83
2023-04-25T07:48:51.083Z,14.00
2023-04-25T07:51:24.484Z,11.03
2023-04-25T07:53:58.240Z,8.43
2023-04-25T07:56:41.497Z,9.58
2023-04-25T07:59:06.554Z,10.53
2023-04-25T08:01:40.002Z,9.48
2023-04-25T08:04:13.731Z,8.10
2023-04-25T08:06:55.249Z,7.58
2023-04-25T08:09:34.308Z,7.67
2023-04-25T08:12:08.540Z,5.75
2023-04-25T08:14:41.941Z,8.43
2023-04-25T08:17:15.653Z,5.58
2023-04-25T08:19:48.603Z,5.00
2023-04-25T08:22:31.160Z,4.17
2023-04-25T08:25:06.702Z,2.25
2023-04-25T08:27:39.704Z,3.58
2023-04-25T08:30:13.528Z,9.18
2023-04-25T08:32:47.298Z,3.67
2023-04-25T08:35:22.681Z,3.65
2023-04-25T08:37:56.322Z,2.55
2023-04-25T08:40:31.413Z,4.40
2023-04-25T08:43:12.920Z,2.35
2023-04-25T08:45:47.443Z,3.67
2023-04-25T08:48:22.278Z,6.30
2023-04-25T08:50:57.481Z,3.35
2023-04-25T08:53:34.138Z,8.75
2023-04-25T08:56:10.510Z,7.65
2023-04-25T08:58:43.880Z,6.72
2023-04-25T09:01:19.803Z,6.65
2023-04-25T09:03:54.918Z,5.75
2023-04-25T09:06:29.097Z,7.80
2023-04-25T09:11:42.916Z,6.83
2023-04-25T09:14:24.214Z,4.78
2023-04-25T09:17:09.152Z,4.42
2023-04-25T09:19:51.437Z,4.60
2023-04-25T09:22:26.138Z,5.42
2023-04-25T09:24:59.798Z,3.20
2023-04-25T09:27:34.083Z,4.85
2023-04-25T09:30:17.036Z,4.87
2023-04-25T09:33:00.093Z,4.78
2023-04-25T09:35:35.557Z,4.45
2023-04-25T09:38:18.631Z,3.47
2023-04-25T09:41:00.098Z,5.90
2023-04-25T09:43:34.850Z,4.22
2023-04-25T09:46:15.028Z,5.83
2023-04-25T09:48:55.067Z,4.80
2023-04-25T09:51:30.058Z,8.00
2023-04-25T09:56:39.226Z,3.55
2023-04-25T09:59:15.046Z,2.75
2023-04-25T10:01:48.288Z,4.62
2023-04-25T10:04:32.183Z,4.53
2023-04-25T10:07:10.914Z,2.70
2023-04-25T10:09:44.038Z,2.12
2023-04-25T10:12:17.226Z,2.10
2023-04-25T10:14:50.481Z,1.85
2023-04-25T10:17:23.847Z,2.17
2023-04-25T10:19:57.870Z,2.95
2023-04-25T10:25:09.565Z,4.28
2023-04-25T10:27:43.268Z,5.60
2023-04-25T10:30:19.636Z,4.92
2023-04-25T10:32:52.967Z,5.70
2023-04-25T10:35:32.701Z,3.73
2023-04-25T10:38:13.943Z,4.03
2023-04-25T10:41:10.560Z,7.78
2023-04-25T10:43:48.224Z,4.58
2023-04-25T10:46:27.202Z,3.40
2023-04-25T10:49:03.105Z,4.75
2023-04-25T10:51:54.539Z,4.72
2023-04-25T10:54:13.216Z,4.33
2023-04-25T10:56:46.327Z,3.72
2023-04-25T10:59:20.977Z,3.22
2023-04-25T11:01:58.830Z,5.03
2023-04-25T11:04:36.217Z,2.70
2023-04-25T11:07:39.591Z,2.90
2023-04-25T11:10:12.794Z,1.98
2023-04-25T11:12:47.963Z,4.35
2023-04-25T11:15:21.233Z,6.90
2023-04-25T11:17:58.019Z,2.92
2023-04-25T11:20:31.118Z,3.17
2023-04-25T11:25:38.784Z,2.33
2023-04-25T11:28:12.479Z,2.87
2023-04-25T11:30:51.321Z,2.55
2023-04-25T11:33:29.815Z,2.40
2023-04-25T11:36:03.229Z,4.60
2023-04-25T11:38:36.695Z,2.05
2023-04-25T11:41:09.887Z,2.95
2023-04-25T11:43:43.474Z,5.08
2023-04-25T11:46:16.791Z,4.78
2023-04-25T11:48:51.913Z,7.53
2023-04-25T11:51:25.371Z,5.37
2023-04-25T11:53:58.553Z,3.57
2023-04-25T11:56:32.444Z,4.90
2023-04-25T11:59:07.994Z,3.85
2023-04-25T12:01:45.966Z,2.47
2023-04-25T12:04:27.423Z,8.58
2023-04-25T12:07:02.996Z,4.10
2023-04-25T12:09:37.139Z,3.95
2023-04-25T12:12:12.749Z,1.62
2023-04-25T12:14:52.502Z,3.10
2023-04-25T12:17:26.257Z,2.45
2023-04-25T12:19:59.381Z,2.80
2023-04-25T12:22:33.238Z,3.33
2023-04-25T12:25:08.817Z,3.03
2023-04-25T12:27:45.607Z,4.62
2023-04-25T12:30:18.868Z,3.47
2023-04-25T12:32:52.293Z,4.85
2023-04-25T12:35:25.172Z,6.10
2023-04-25T12:37:58.238Z,3.08
2023-04-25T12:40:31.327Z,2.87
2023-04-25T12:43:04.544Z,4.00
2023-04-25T12:45:37.667Z,2.70
2023-04-25T12:48:11.456Z,5.22
2023-04-25T12:50:44.969Z,3.58
2023-04-25T12:53:20.786Z,2.47
2023-04-25T12:58:28.581Z,3.95
2023-04-25T13:01:01.639Z,3.10
2023-04-25T13:03:36.358Z,3.40
2023-04-25T13:08:43.160Z,2.77
2023-04-25T13:11:19.070Z,3.65
2023-04-25T13:13:52.307Z,2.90
2023-04-25T13:16:26.247Z,2.33
2023-04-25T13:19:00.324Z,2.47
2023-04-25T13:21:34.056Z,2.12
2023-04-25T13:24:07.238Z,2.27
2023-04-25T13:26:40.853Z,3.75
2023-04-25T13:29:15.196Z,2.75
2023-04-25T13:31:48.245Z,3.35
2023-04-25T13:34:22.109Z,3.37
2023-04-25T13:36:55.924Z,2.27
2023-04-25T13:39:29.154Z,2.83
2023-04-25T13:42:03.196Z,3.50
2023-04-25T13:44:36.157Z,2.40
2023-04-25T13:47:09.264Z,5.08
2023-04-25T13:49:42.427Z,2.27
2023-04-25T13:52:15.261Z,3.25
2023-04-25T13:54:48.351Z,2.30
2023-04-25T13:57:21.649Z,3.98
2023-04-25T13:59:55.090Z,2.92
2023-04-25T14:02:28.656Z,2.47
2023-04-25T14:05:02.020Z,3.70
2023-04-25T14:07:36.524Z,2.72
2023-04-25T14:10:10.183Z,4.35
2023-04-25T14:12:43.235Z,1.62
2023-04-25T14:15:16.448Z,2.08
2023-04-25T14:17:49.697Z,1.87
2023-04-25T14:20:24.334Z,2.22
2023-04-25T14:22:58.861Z,2.87
2023-04-25T14:25:33.175Z,4.78
2023-04-25T14:30:38.097Z,3.77
2023-04-25T14:33:10.906Z,3.37
2023-04-25T14:35:43.914Z,2.65
2023-04-25T14:38:17.155Z,3.58
2023-04-25T14:40:50.353Z,2.90
2023-04-25T14:43:24.187Z,1.62
2023-04-25T14:45:58.580Z,2.90
2023-04-25T14:48:32.475Z,2.95
2023-04-25T14:51:05.594Z,4.72
2023-04-25T14:53:38.699Z,2.53
2023-04-25T14:56:11.871Z,2.62
2023-04-25T14:58:45.186Z,2.37
2023-04-25T15:01:18.311Z,2.45
2023-04-25T15:03:52.706Z,3.85
2023-04-25T15:06:27.586Z,2.33
2023-04-25T15:09:01.601Z,2.55
2023-04-25T15:11:34.749Z,2.17
2023-04-25T15:14:07.700Z,5.10
2023-04-25T15:16:40.762Z,2.92
2023-04-25T15:19:13.734Z,2.37
2023-04-25T15:21:47.047Z,5.58
2023-04-25T15:24:20.272Z,4.42
2023-04-25T15:26:53.608Z,4.78
2023-04-25T15:29:27.517Z,2.63
2023-04-25T15:32:01.079Z,3.37
2023-04-25T15:34:35.275Z,5.10
2023-04-25T15:37:08.887Z,3.77
2023-04-25T15:39:41.716Z,3.02
2023-04-25T15:42:14.589Z,3.83
2023-04-25T15:44:47.570Z,3.17
2023-04-25T15:47:21.116Z,4.47
2023-04-25T15:49:53.909Z,4.40
2023-04-25T15:52:27.917Z,3.08
2023-04-25T15:55:01.737Z,4.87
2023-04-25T15:57:37.082Z,3.62
2023-04-25T16:00:12.401Z,3.37
2023-04-25T16:02:46.130Z,3.05
2023-04-25T16:05:19.922Z,4.00
2023-04-25T16:07:54.156Z,4.20
2023-04-25T16:12:59.707Z,3.00
2023-04-25T16:15:35.084Z,3.15
2023-04-25T16:18:08.706Z,3.17
2023-04-25T16:20:42.459Z,3.50
2023-04-25T16:23:15.814Z,3.02
2023-04-25T16:25:48.728Z,6.58
2023-04-25T16:28:21.750Z,6.92
2023-04-25T16:30:54.696Z,2.85
2023-04-25T16:33:28.085Z,4.40
2023-04-25T16:36:00.873Z,4.00
2023-04-25T16:38:33.949Z,3.05
2023-04-25T16:41:07.708Z,5.00
2023-04-25T16:43:43.534Z,5.00
2023-04-25T16:46:18.111Z,3.17
2023-04-25T16:48:51.435Z,4.42
2023-04-25T16:51:24.660Z,4.25
2023-04-25T16:53:57.930Z,3.83
2023-04-25T16:56:31.182Z,2.70
2023-04-25T16:59:04.276Z,2.67
2023-04-25T17:01:37.926Z,2.70
2023-04-25T17:04:11.357Z,2.77
2023-04-25T17:06:45.058Z,3.17
2023-04-25T17:09:19.142Z,4.47
2023-04-25T17:11:52.170Z,3.20
2023-04-25T17:14:25.600Z,4.17
2023-04-25T17:16:58.755Z,4.10
2023-04-25T17:19:32.501Z,2.52
2023-04-25T17:22:05.384Z,2.30
2023-04-25T17:24:40.148Z,3.15
2023-04-25T17:27:13.376Z,3.15
2023-04-25T17:29:46.766Z,5.07
2023-04-25T17:32:19.908Z,3.50
2023-04-25T17:34:53.040Z,5.28
2023-04-25T17:37:28.151Z,3.50
2023-04-25T17:40:01.208Z,2.90
2023-04-25T17:42:34.779Z,6.03
2023-04-25T17:45:09.752Z,4.70
2023-04-25T17:47:42.801Z,4.30
2023-04-25T17:50:17.180Z,5.83
2023-04-25T17:52:50.236Z,5.67
2023-04-25T17:55:24.099Z,3.70
2023-04-25T17:57:58.158Z,5.22
2023-04-25T18:00:32.791Z,5.25
2023-04-25T18:03:05.763Z,4.42
2023-04-25T18:05:39.131Z,5.43
2023-04-25T18:08:12.166Z,5.95
2023-04-25T18:10:45.138Z,8.40
2023-04-25T18:13:18.536Z,5.23
2023-04-25T18:15:52.185Z,6.30
2023-04-25T18:18:27.253Z,7.53
2023-04-25T18:21:01.539Z,7.45
2023-04-25T18:26:10.045Z,8.45
2023-04-25T18:28:43.423Z,7.87
2023-04-25T18:31:17.738Z,6.10
2023-04-25T18:33:51.053Z,11.10
2023-04-25T18:36:24.568Z,11.20
2023-04-25T18:39:08.662Z,10.23
2023-04-25T18:41:53.739Z,8.98
2023-04-25T18:44:13.251Z,10.32
2023-04-25T18:46:47.494Z,10.08
2023-04-25T18:51:52.376Z,7.55
2023-04-25T18:54:25.718Z,13.18
2023-04-25T18:57:00.522Z,9.90
2023-04-25T18:59:34.671Z,9.28
2023-04-25T19:02:08.337Z,7.62
2023-04-25T19:04:41.579Z,8.03
2023-04-25T19:07:15.336Z,7.50
2023-04-25T19:09:48.241Z,7.92
2023-04-25T19:12:22.334Z,7.40
2023-04-25T19:14:55.671Z,9.25
2023-04-25T19:17:30.534Z,11.05
2023-04-25T19:20:04.524Z,8.75
2023-04-25T19:22:37.758Z,7.33
2023-04-25T19:25:11.786Z,8.97
2023-04-25T19:27:45.308Z,7.12
2023-04-25T19:30:18.158Z,8.85
2023-04-25T19:32:51.707Z,8.53
2023-04-25T19:35:24.684Z,9.53
2023-04-25T19:37:57.932Z,13.75
2023-04-25T19:40:31.309Z,10.78
2023-04-25T19:43:04.883Z,11.35
2023-04-25T19:45:38.009Z,5.97
2023-04-25T19:48:12.054Z,5.67
2023-04-25T19:50:45.096Z,9.80
2023-04-25T19:53:17.878Z,7.70
2023-04-25T19:55:51.256Z,7.83
2023-04-25T19:58:24.699Z,8.98
2023-04-25T20:01:01.134Z,5.00
2023-04-25T20:03:35.143Z,9.63
2023-04-25T20:06:08.341Z,8.98
2023-04-25T20:08:42.190Z,8.40
2023-04-25T20:11:15.937Z,6.37
2023-04-25T20:13:49.107Z,6.55
2023-04-25T20:16:22.507Z,6.60
2023-04-25T20:18:55.784Z,6.53
2023-04-25T20:21:29.971Z,7.58
2023-04-25T20:24:03.561Z,6.75
2023-04-25T20:26:38.494Z,7.85
2023-04-25T20:29:11.534Z,7.40
2023-04-25T20:31:44.799Z,7.00
2023-04-25T20:34:20.104Z,8.53
2023-04-25T20:36:53.415Z,4.47
2023-04-25T20:39:27.274Z,5.47
2023-04-25T20:42:00.029Z,7.17
2023-04-25T20:44:33.201Z,6.97
2023-04-25T20:47:08.827Z,7.58
2023-04-25T20:49:41.189Z,6.25
2023-04-25T20:52:14.303Z,6.00
2023-04-25T20:54:52.286Z,5.28
2023-04-25T20:57:25.281Z,4.78
2023-04-25T21:00:00.043Z,9.18
2023-04-25T21:02:33.144Z,8.40
2023-04-25T21:05:07.137Z,6.47
2023-04-25T21:07:41.197Z,6.95
2023-04-25T21:10:15.886Z,6.97
2023-04-25T21:12:49.733Z,10.65
2023-04-25T21:15:24.911Z,6.03
2023-04-25T21:17:57.807Z,5.95
2023-04-25T21:20:31.066Z,8.90
2023-04-25T21:23:05.817Z,7.20
2023-04-25T21:25:39.253Z,6.00
2023-04-25T21:28:12.659Z,6.90
2023-04-25T21:30:46.955Z,4.55
2023-04-25T21:33:19.948Z,5.35
2023-04-25T21:35:53.642Z,9.78
2023-04-25T21:38:26.914Z,6.97
2023-04-25T21:41:00.436Z,7.33
2023-04-25T21:43:33.708Z,9.10
2023-04-25T21:46:22.499Z,7.80
2023-04-25T21:48:42.016Z,8.00
2023-04-25T21:51:15.207Z,7.15
2023-04-25T21:53:48.101Z,10.08
2023-04-25T21:56:21.477Z,10.35
2023-04-25T21:58:54.416Z,9.70
2023-04-25T22:01:28.812Z,8.20
2023-04-25T22:04:01.777Z,10.03
2023-04-25T22:06:34.893Z,10.98
2023-04-25T22:09:07.958Z,8.33
2023-04-25T22:11:41.390Z,5.50
2023-04-25T22:14:15.158Z,10.20
2023-04-25T22:16:50.119Z,8.63
2023-04-25T22:19:23.083Z,9.25
2023-04-25T22:21:56.295Z,6.45
2023-04-25T22:24:30.216Z,7.90
2023-04-25T22:27:03.289Z,6.25
2023-04-25T22:29:37.231Z,8.28
2023-04-25T22:32:10.284Z,10.13
2023-04-25T22:34:43.454Z,15.72
2023-04-25T22:37:17.136Z,6.40
2023-04-25T22:39:50.086Z,10.32
2023-04-25T22:42:23.263Z,10.25
2023-04-25T22:44:56.182Z,9.88
2023-04-25T22:47:29.786Z,11.48
2023-04-25T22:50:04.182Z,7.67
2023-04-25T22:52:37.548Z,8.10
2023-04-25T22:55:12.619Z,11.87
2023-04-25T22:57:45.705Z,7.17
2023-04-25T23:00:22.523Z,10.25
2023-04-25T23:02:55.835Z,10.55
2023-04-25T23:05:29.071Z,11.65
2023-04-25T23:08:02.303Z,5.83
2023-04-25T23:10:37.257Z,9.90
2023-04-25T23:13:10.619Z,7.45
2023-04-25T23:15:43.616Z,13.90
2023-04-25T23:18:16.940Z,7.37
2023-04-25T23:20:50.312Z,7.28
2023-04-25T23:23:23.721Z,9.60
2023-04-25T23:25:58.188Z,9.58
2023-04-25T23:28:31.642Z,9.23
2023-04-25T23:31:12.301Z,8.68
2023-04-25T23:33:45.264Z,5.78
2023-04-25T23:36:21.632Z,9.48
2023-04-25T23:38:56.263Z,8.80
2023-04-25T23:41:29.147Z,9.40
2023-04-25T23:44:03.681Z,7.90
2023-04-25T23:46:36.913Z,13.85
2023-04-25T23:49:10.186Z,7.90
2023-04-25T23:51:43.552Z,9.65
2023-04-25T23:54:16.819Z,7.65
2023-04-25T23:56:49.731Z,7.53
2023-04-25T23:59:22.782Z,6.90
